Time;durP1;ratioP1;P1;durP2;ratioP2;P2;SDS_P1;SDS_P2;PMS_P1;PMS_P2;Temp;Humidity;BMP_temperature;BMP_pressure;BME280_temperature;BME280_humidity;BME280_pressure;Samples;Min_cycle;Max_cycle;Signal;HPM_P1;HPM_P2
2022/06/18 00:01:46;;;;;;;;;;;;;;;;;;5087836;28;19916;-84
2022/06/18 00:04:33;;;;;;;;;;;;;;;;;;5075025;28;19916;-84
2022/06/18 00:07:19;;;;;;;;;;;;;;;;;;5081666;28;19924;-85
2022/06/18 00:10:06;;;;;;;;;;;;;;;;;;5089783;28;20543;-84
2022/06/18 00:15:58;;;;;;;;;;;;;;;;;;5085899;28;19912;-84
2022/06/18 00:18:45;;;;;;;;;;;;;;;;;;5074786;28;19909;-84
2022/06/18 00:21:31;;;;;;;;;;;;;;;;;;5082095;28;19938;-84
2022/06/18 00:24:18;;;;;;;;;;;;;;;;;;5079822;28;19919;-83
2022/06/18 00:27:04;;;;;;;;;;;;;;;;;;5073932;28;19942;-84
2022/06/18 00:29:51;;;;;;;;;;;;;;;;;;5088179;28;19922;-85
2022/06/18 00:32:37;;;;;;;;;;;;;;;;;;5073170;28;19913;-86
2022/06/18 00:35:24;;;;;;;;;;;;;;;;;;5087822;28;19946;-84
2022/06/18 00:38:10;;;;;;;;;;;;;;;;;;5089738;28;19912;-85
2022/06/18 00:40:57;;;;;;;;;;;;;;;;;;5089140;28;19927;-83
2022/06/18 00:43:43;;;;;;;;;;;;;;;;;;5085684;28;19923;-84
2022/06/18 00:46:30;;;;;;;;;;;;;;;;;;5087640;28;19920;-84
2022/06/18 00:49:16;;;;;;;;;;;;;;;;;;5085464;28;19940;-83
2022/06/18 00:52:03;;;;;;;;;;;;;;;;;;5087516;28;20394;-83
2022/06/18 00:54:49;;;;;;;;;;;;;;;;;;5085767;28;19912;-84
2022/06/18 00:57:36;;;;;;;;;;;;;;;;;;5085550;28;20386;-84
2022/06/18 01:00:22;;;;;;;;;;;;;;;;;;5088729;28;19919;-84
2022/06/18 01:03:08;;;;;;;;;;;;;;;;;;5083701;28;19943;-84
2022/06/18 01:05:55;;;;;;;;;;;;;;;;;;5086340;28;20398;-84
2022/06/18 01:08:41;;;;;;;;;;;;;;;;;;5081784;28;19931;-83
2022/06/18 01:11:28;;;;;;;;;;;;;;;;;;5082346;28;19916;-83
2022/06/18 01:14:14;;;;;;;;;;;;;;;;;;5089038;28;19909;-82
2022/06/18 01:17:01;;;;;;;;;;;;;;;;;;5084673;28;19942;-82
2022/06/18 01:19:47;;;;;;;;;;;;;;;;;;5069636;28;19916;-82
2022/06/18 01:22:34;;;;;;;;;;;;;;;;;;5080219;28;19916;-83
2022/06/18 01:25:20;;;;;;;;;;;;;;;;;;5070336;28;19920;-84
2022/06/18 01:28:09;;;;;;;;;;;;;;;;;;5073465;28;20560;-84
2022/06/18 01:30:55;;;;;;;;;;;;;;;;;;5090225;28;19912;-84
2022/06/18 01:33:42;;;;;;;;;;;;;;;;;;5071014;28;19923;-83
2022/06/18 01:36:28;;;;;;;;;;;;;;;;;;5075265;28;20300;-83
2022/06/18 01:39:14;;;;;;;;;;;;;;;;;;5079620;28;19912;-83
2022/06/18 01:42:01;;;;;;;;;;;;;;;;;;5084070;28;20386;-83
2022/06/18 01:44:47;;;;;;;;;;;;;;;;;;5085938;28;19912;-83
2022/06/18 01:47:34;;;;;;;;;;;;;;;;;;5069405;28;20303;-83
2022/06/18 01:50:20;;;;;;;;;;;;;;;;;;5063776;28;19916;-85
2022/06/18 01:53:07;;;;;;;;;;;;;;;;;;5079067;28;19926;-85
2022/06/18 01:55:53;;;;;;;;;;;;;;;;;;5087479;28;19918;-85
2022/06/18 01:58:40;;;;;;;;;;;;;;;;;;5090890;28;20390;-84
2022/06/18 02:01:26;;;;;;;;;;;;;;;;;;5089071;28;19912;-83
2022/06/18 02:04:13;;;;;;;;;;;;;;;;;;5089485;28;19915;-83
2022/06/18 02:06:59;;;;;;;;;;;;;;;;;;5091463;28;19908;-84
2022/06/18 02:09:46;;;;;;;;;;;;;;;;;;5088262;28;19927;-83
2022/06/18 02:12:33;;;;;;;;;;;;;;;;;;5073687;28;19927;-84
2022/06/18 02:15:19;;;;;;;;;;;;;;;;;;5088412;28;19919;-84
2022/06/18 02:18:06;;;;;;;;;;;;;;;;;;5065519;28;19920;-82
2022/06/18 02:20:52;;;;;;;;;;;;;;;;;;5070682;28;20296;-80
2022/06/18 02:23:39;;;;;;;;;;;;;;;;;;5088139;28;20372;-80
2022/06/18 02:26:26;;;;;;;;;;;;;;;;;;5085550;28;19978;-81
2022/06/18 02:29:12;;;;;;;;;;;;;;;;;;5085961;28;19920;-80
2022/06/18 02:31:59;;;;;;;;;;;;;;;;;;5087373;28;19924;-81
2022/06/18 02:34:45;;;;;;;;;;;;;;;;;;5080356;28;19938;-80
2022/06/18 02:37:32;;;;;;;;;;;;;;;;;;5088481;28;19923;-82
2022/06/18 02:40:19;;;;;;;;;;;;;;;;;;5070797;28;19934;-81
2022/06/18 02:43:05;;;;;;;;;;;;;;;;;;5080190;28;19916;-81
2022/06/18 02:45:52;;;;;;;;;;;;;;;;;;5085917;28;20429;-81
2022/06/18 02:48:39;;;;;;;;;;;;;;;;;;5090071;28;20400;-81
2022/06/18 02:51:25;;;;;;;;;;;;;;;;;;5089596;28;19908;-81
2022/06/18 02:54:11;;;;;;;;;;;;;;;;;;5084765;28;20299;-81
2022/06/18 02:56:58;;;;;;;;;;;;;;;;;;5083616;28;19913;-81
2022/06/18 02:59:44;;;;;;;;;;;;;;;;;;5079071;28;20383;-81
2022/06/18 03:02:31;;;;;;;;;;;;;;;;;;5088704;28;19916;-81
2022/06/18 03:05:17;;;;;;;;;;;;;;;;;;5086485;28;20309;-82
2022/06/18 03:08:04;;;;;;;;;;;;;;;;;;5080763;28;19930;-82
2022/06/18 03:13:55;;;;;;;;;;;;;;;;;;5092371;28;19919;-81
2022/06/18 03:16:42;;;;;;;;;;;;;;;;;;5094334;28;19908;-81
2022/06/18 03:19:29;;;;;;;;;;;;;;;;;;5091862;28;19916;-81
2022/06/18 03:22:16;;;;;;;;;;;;;;;;;;5086474;28;19914;-81
2022/06/18 03:25:03;;;;;;;;;;;;;;;;;;5087797;28;19908;-81
2022/06/18 03:27:50;;;;;;;;;;;;;;;;;;5084329;28;20015;-80
2022/06/18 03:30:39;;;;;;;;;;;;;;;;;;5072494;28;20018;-79
2022/06/18 03:33:25;;;;;;;;;;;;;;;;;;5079320;28;19912;-80
2022/06/18 03:36:12;;;;;;;;;;;;;;;;;;5089051;28;20279;-80
2022/06/18 03:38:58;;;;;;;;;;;;;;;;;;5084443;28;19912;-82
2022/06/18 03:41:45;;;;;;;;;;;;;;;;;;5076541;28;19928;-81
2022/06/18 03:44:31;;;;;;;;;;;;;;;;;;5080936;28;19916;-82
2022/06/18 03:47:18;;;;;;;;;;;;;;;;;;5081617;28;19919;-82
2022/06/18 03:50:04;;;;;;;;;;;;;;;;;;5075112;28;20305;-80
2022/06/18 03:52:51;;;;;;;;;;;;;;;;;;5085983;28;19927;-83
2022/06/18 03:55:37;;;;;;;;;;;;;;;;;;5087312;28;19916;-82
2022/06/18 03:58:23;;;;;;;;;;;;;;;;;;5078627;28;20276;-81
2022/06/18 04:01:10;;;;;;;;;;;;;;;;;;5078369;28;19908;-82
2022/06/18 04:03:57;;;;;;;;;;;;;;;;;;5079181;28;19943;-82
2022/06/18 04:06:43;;;;;;;;;;;;;;;;;;5083228;28;19913;-83
2022/06/18 04:09:30;;;;;;;;;;;;;;;;;;5084659;28;19916;-82
2022/06/18 04:12:17;;;;;;;;;;;;;;;;;;5080981;28;19918;-81
2022/06/18 04:15:03;;;;;;;;;;;;;;;;;;5078663;28;19924;-81
2022/06/18 04:17:50;;;;;;;;;;;;;;;;;;5081101;28;19915;-81
2022/06/18 04:20:36;;;;;;;;;;;;;;;;;;5072093;28;19916;-80
2022/06/18 04:23:23;;;;;;;;;;;;;;;;;;5083655;28;19916;-82
2022/06/18 04:26:09;;;;;;;;;;;;;;;;;;5077844;28;19916;-82
2022/06/18 04:28:56;;;;;;;;;;;;;;;;;;5072017;28;19923;-81
2022/06/18 04:31:42;;;;;;;;;;;;;;;;;;5084172;28;20269;-81
2022/06/18 04:34:29;;;;;;;;;;;;;;;;;;5080644;28;19919;-81
2022/06/18 04:37:15;;;;;;;;;;;;;;;;;;5087519;28;20280;-81
2022/06/18 04:40:02;;;;;;;;;;;;;;;;;;5088304;28;20296;-81
2022/06/18 04:42:48;;;;;;;;;;;;;;;;;;5087282;28;20265;-81
2022/06/18 04:45:35;;;;;;;;;;;;;;;;;;5076496;28;19916;-82
2022/06/18 04:48:21;;;;;;;;;;;;;;;;;;5067584;28;19920;-82
2022/06/18 04:51:08;;;;;;;;;;;;;;;;;;5068124;28;19913;-82
2022/06/18 04:53:54;;;;;;;;;;;;;;;;;;5084974;28;19930;-82
2022/06/18 04:56:41;;;;;;;;;;;;;;;;;;5086323;28;19923;-81
2022/06/18 04:59:27;;;;;;;;;;;;;;;;;;5085532;28;19912;-81
2022/06/18 05:02:13;;;;;;;;;;;;;;;;;;5078527;28;20314;-80
2022/06/18 05:05:00;;;;;;;;;;;;;;;;;;5089654;28;19912;-81
2022/06/18 05:07:47;;;;;;;;;;;;;;;;;;5087258;28;20453;-82
2022/06/18 05:10:33;;;;;;;;;;;;;;;;;;5083528;28;19964;-80
2022/06/18 05:13:20;;;;;;;;;;;;;;;;;;5079905;28;19908;-81
2022/06/18 05:16:06;;;;;;;;;;;;;;;;;;5091764;28;19916;-81
2022/06/18 05:18:54;;;;;;;;;;;;;;;;;;5082789;28;19908;-80
2022/06/18 05:21:43;;;;;;;;;;;;;;;;;;5082782;28;19919;-81
2022/06/18 05:24:29;;;;;;;;;;;;;;;;;;5073816;28;19908;-81
2022/06/18 05:27:16;;;;;;;;;;;;;;;;;;5086447;28;19942;-80
2022/06/18 05:30:02;;;;;;;;;;;;;;;;;;5087006;28;21341;-82
2022/06/18 05:32:48;;;;;;;;;;;;;;;;;;5086753;28;19908;-81
2022/06/18 05:35:35;;;;;;;;;;;;;;;;;;5081976;28;20269;-82
2022/06/18 05:38:21;;;;;;;;;;;;;;;;;;5088909;28;19916;-82
2022/06/18 05:41:08;;;;;;;;;;;;;;;;;;5082713;28;19920;-81
2022/06/18 05:43:54;;;;;;;;;;;;;;;;;;5082440;28;19923;-80
2022/06/18 05:46:41;;;;;;;;;;;;;;;;;;5088767;28;19938;-80
2022/06/18 05:49:27;;;;;;;;;;;;;;;;;;5085747;28;20360;-80
2022/06/18 05:52:14;;;;;;;;;;;;;;;;;;5083837;28;19918;-80
2022/06/18 05:55:01;;;;;;;;;;;;;;;;;;5086417;28;20410;-80
2022/06/18 05:57:48;;;;;;;;;;;;;;;;;;5084815;28;20454;-81
2022/06/18 06:00:34;;;;;;;;;;;;;;;;;;5082622;28;19913;-81
2022/06/18 06:03:21;;;;;;;;;;;;;;;;;;5086570;28;20378;-81
2022/06/18 06:06:07;;;;;;;;;;;;;;;;;;5082930;28;19916;-80
2022/06/18 06:08:54;;;;;;;;;;;;;;;;;;5079752;28;20387;-81
2022/06/18 06:11:40;;;;;;;;;;;;;;;;;;5085030;28;19916;-81
2022/06/18 06:14:32;;;;;;;;;;;;;;;;;;5078672;28;19924;-81
2022/06/18 06:17:19;;;;;;;;;;;;;;;;;;5064497;28;19913;-80
2022/06/18 06:20:05;;;;;;;;;;;;;;;;;;5073705;28;19928;-81
2022/06/18 06:22:51;;;;;;;;;;;;;;;;;;5083887;28;19919;-87
2022/06/18 06:25:38;;;;;;;;;;;;;;;;;;5078825;28;19912;-88
2022/06/18 06:28:24;;;;;;;;;;;;;;;;;;5082696;28;19924;-88
2022/06/18 06:31:12;;;;;;;;;;;;;;;;;;5083559;28;19916;-89
2022/06/18 06:33:58;;;;;;;;;;;;;;;;;;5080626;28;20280;-89
2022/06/18 06:36:45;;;;;;;;;;;;;;;;;;5088518;28;19923;-88
2022/06/18 06:39:31;;;;;;;;;;;;;;;;;;5089437;28;19919;-88
2022/06/18 06:42:18;;;;;;;;;;;;;;;;;;5090244;28;19989;-87
2022/06/18 06:45:04;;;;;;;;;;;;;;;;;;5089442;28;19916;-86
2022/06/18 06:47:51;;;;;;;;;;;;;;;;;;5086512;28;19916;-89
2022/06/18 06:50:37;;;;;;;;;;;;;;;;;;5087316;28;19919;-88
2022/06/18 06:53:24;;;;;;;;;;;;;;;;;;5080984;28;19931;-83
2022/06/18 06:59:15;;;;;;;;;;;;;;;;;;5078103;28;19923;-80
2022/06/18 07:02:02;;;;;;;;;;;;;;;;;;5080936;28;19912;-82
2022/06/18 07:04:48;;;;;;;;;;;;;;;;;;5073296;28;19923;-83
2022/06/18 07:07:35;;;;;;;;;;;;;;;;;;5075806;28;19920;-82
2022/06/18 07:10:21;;;;;;;;;;;;;;;;;;5072515;28;19924;-84
2022/06/18 07:13:08;;;;;;;;;;;;;;;;;;5080958;28;19920;-81
2022/06/18 07:15:55;;;;;;;;;;;;;;;;;;5072349;28;19912;-78
2022/06/18 07:18:41;;;;;;;;;;;;;;;;;;5084750;28;19916;-81
2022/06/18 07:21:33;;;;;;;;;;;;;;;;;;5066037;28;19923;-82
2022/06/18 07:24:19;;;;;;;;;;;;;;;;;;5082112;28;19909;-79
2022/06/18 07:27:06;;;;;;;;;;;;;;;;;;5085364;28;19982;-87
2022/06/18 07:29:52;;;;;;;;;;;;;;;;;;5081270;28;19927;-79
2022/06/18 07:32:39;;;;;;;;;;;;;;;;;;5080034;28;19912;-78
2022/06/18 07:35:25;;;;;;;;;;;;;;;;;;5077524;28;19912;-78
2022/06/18 07:38:12;;;;;;;;;;;;;;;;;;5072177;28;19912;-79
2022/06/18 07:40:58;;;;;;;;;;;;;;;;;;5087332;28;19908;-79
2022/06/18 07:43:45;;;;;;;;;;;;;;;;;;5070881;28;19912;-79
2022/06/18 07:46:31;;;;;;;;;;;;;;;;;;5080508;28;19916;-79
2022/06/18 07:49:18;;;;;;;;;;;;;;;;;;5066482;28;19916;-79
2022/06/18 07:52:04;;;;;;;;;;;;;;;;;;5083879;28;20518;-79
2022/06/18 07:54:50;;;;;;;;;;;;;;;;;;5083009;28;19926;-79
2022/06/18 07:57:37;;;;;;;;;;;;;;;;;;5068932;28;19935;-79
2022/06/18 08:00:24;;;;;;;;;;;;;;;;;;5074908;28;19918;-79
2022/06/18 08:03:10;;;;;;;;;;;;;;;;;;5081212;28;19912;-79
2022/06/18 08:05:57;;;;;;;;;;;;;;;;;;5086334;28;19919;-79
2022/06/18 08:08:43;;;;;;;;;;;;;;;;;;5089616;28;19924;-79
2022/06/18 08:11:29;;;;;;;;;;;;;;;;;;5081288;28;19908;-79
2022/06/18 08:14:16;;;;;;;;;;;;;;;;;;5090979;28;19917;-79
2022/06/18 08:17:02;;;;;;;;;;;;;;;;;;5077801;28;20296;-79
2022/06/18 08:19:49;;;;;;;;;;;;;;;;;;5068654;28;19919;-79
2022/06/18 08:22:35;;;;;;;;;;;;;;;;;;5070751;28;20380;-79
2022/06/18 08:25:22;;;;;;;;;;;;;;;;;;5082286;28;19919;-79
2022/06/18 08:28:08;;;;;;;;;;;;;;;;;;5077312;28;19919;-83
2022/06/18 08:30:55;;;;;;;;;;;;;;;;;;5087829;28;19919;-79
2022/06/18 08:33:42;;;;;;;;;;;;;;;;;;5076446;28;19917;-80
2022/06/18 08:36:28;;;;;;;;;;;;;;;;;;5086846;28;19919;-80
2022/06/18 08:39:15;;;;;;;;;;;;;;;;;;5078079;28;19913;-79
2022/06/18 08:42:02;;;;;;;;;;;;;;;;;;5079094;28;20357;-80
2022/06/18 08:44:49;;;;;;;;;;;;;;;;;;5071524;28;20378;-80
2022/06/18 08:47:35;;;;;;;;;;;;;;;;;;5081930;28;19913;-80
2022/06/18 08:50:22;;;;;;;;;;;;;;;;;;5071852;28;19920;-84
2022/06/18 08:53:08;;;;;;;;;;;;;;;;;;5080070;28;19927;-80
2022/06/18 08:55:55;;;;;;;;;;;;;;;;;;5076032;28;20003;-86
2022/06/18 08:58:41;;;;;;;;;;;;;;;;;;5079408;28;19916;-87
2022/06/18 09:01:28;;;;;;;;;;;;;;;;;;5083071;28;19916;-88
2022/06/18 09:04:14;;;;;;;;;;;;;;;;;;5076882;28;19916;-87
2022/06/18 09:07:01;;;;;;;;;;;;;;;;;;5080210;28;19915;-88
2022/06/18 09:09:47;;;;;;;;;;;;;;;;;;5083702;28;19918;-86
2022/06/18 09:12:34;;;;;;;;;;;;;;;;;;5079417;28;19922;-82
2022/06/18 09:15:20;;;;;;;;;;;;;;;;;;5069485;28;20284;-79
2022/06/18 09:18:07;;;;;;;;;;;;;;;;;;5086974;28;19916;-82
2022/06/18 09:20:53;;;;;;;;;;;;;;;;;;5085488;28;20387;-85
2022/06/18 09:23:40;;;;;;;;;;;;;;;;;;5078763;28;19908;-83
2022/06/18 09:26:26;;;;;;;;;;;;;;;;;;5083605;28;20674;-82
2022/06/18 09:29:13;;;;;;;;;;;;;;;;;;5077998;28;19927;-83
2022/06/18 09:31:59;;;;;;;;;;;;;;;;;;5067969;28;20280;-80
2022/06/18 09:34:45;;;;;;;;;;;;;;;;;;5080380;28;19923;-82
2022/06/18 09:37:32;;;;;;;;;;;;;;;;;;5062959;28;20415;-82
2022/06/18 09:40:18;;;;;;;;;;;;;;;;;;5085247;28;19912;-81
2022/06/18 09:43:05;;;;;;;;;;;;;;;;;;5092139;28;20052;-80
2022/06/18 09:45:51;;;;;;;;;;;;;;;;;;5085530;28;20002;-84
2022/06/18 09:48:38;;;;;;;;;;;;;;;;;;5083024;28;19925;-84
2022/06/18 09:51:35;;;;;;;;;;;;;;;;;;5086985;28;19916;-84
2022/06/18 09:54:22;;;;;;;;;;;;;;;;;;5081945;28;19924;-83
2022/06/18 09:57:08;;;;;;;;;;;;;;;;;;5085000;28;19908;-84
2022/06/18 09:59:55;;;;;;;;;;;;;;;;;;5086411;28;19918;-82
2022/06/18 10:02:41;;;;;;;;;;;;;;;;;;5075625;28;19916;-80
2022/06/18 10:08:33;;;;;;;;;;;;;;;;;;5076346;28;20285;-83
2022/06/18 10:11:20;;;;;;;;;;;;;;;;;;5081661;28;19908;-83
2022/06/18 10:14:06;;;;;;;;;;;;;;;;;;5065277;28;19912;-83
2022/06/18 10:16:53;;;;;;;;;;;;;;;;;;5077709;28;19917;-80
2022/06/18 10:19:39;;;;;;;;;;;;;;;;;;5079067;28;19916;-81
2022/06/18 10:22:26;;;;;;;;;;;;;;;;;;5082228;28;20034;-82
2022/06/18 10:25:12;;;;;;;;;;;;;;;;;;5068202;28;19912;-81
2022/06/18 10:27:59;;;;;;;;;;;;;;;;;;5085916;28;19927;-85
2022/06/18 10:30:45;;;;;;;;;;;;;;;;;;5083587;28;19943;-81
2022/06/18 10:33:32;;;;;;;;;;;;;;;;;;5082833;28;19918;-81
2022/06/18 10:36:19;;;;;;;;;;;;;;;;;;5084694;28;19919;-82
2022/06/18 10:39:06;;;;;;;;;;;;;;;;;;5086383;28;19912;-83
2022/06/18 10:41:52;;;;;;;;;;;;;;;;;;5085957;28;19935;-82
2022/06/18 10:44:38;;;;;;;;;;;;;;;;;;5082998;28;19920;-82
2022/06/18 10:47:25;;;;;;;;;;;;;;;;;;5084254;28;19938;-86
2022/06/18 10:50:11;;;;;;;;;;;;;;;;;;5076377;28;20376;-86
2022/06/18 10:52:58;;;;;;;;;;;;;;;;;;5084384;28;19920;-85
2022/06/18 10:55:44;;;;;;;;;;;;;;;;;;5085228;28;19908;-83
2022/06/18 10:58:31;;;;;;;;;;;;;;;;;;5078276;28;19908;-86
2022/06/18 11:01:17;;;;;;;;;;;;;;;;;;5068933;28;19923;-86
2022/06/18 11:04:04;;;;;;;;;;;;;;;;;;5074830;28;20545;-84
2022/06/18 11:06:50;;;;;;;;;;;;;;;;;;5082412;28;19908;-86
2022/06/18 11:09:37;;;;;;;;;;;;;;;;;;5068902;28;19920;-83
2022/06/18 11:12:23;;;;;;;;;;;;;;;;;;5077355;28;19908;-82
2022/06/18 11:15:10;;;;;;;;;;;;;;;;;;5070126;28;19915;-81
2022/06/18 11:17:56;;;;;;;;;;;;;;;;;;5081122;28;20288;-82
2022/06/18 11:20:43;;;;;;;;;;;;;;;;;;5083444;28;19916;-84
2022/06/18 11:23:29;;;;;;;;;;;;;;;;;;5083909;28;19912;-81
2022/06/18 11:26:16;;;;;;;;;;;;;;;;;;5076728;28;20528;-85
2022/06/18 11:29:04;;;;;;;;;;;;;;;;;;5078254;28;19920;-83
2022/06/18 11:31:51;;;;;;;;;;;;;;;;;;5080243;28;19943;-82
2022/06/18 11:34:37;;;;;;;;;;;;;;;;;;5083089;28;19916;-82
2022/06/18 11:37:24;;;;;;;;;;;;;;;;;;5084721;28;19909;-84
2022/06/18 11:40:10;;;;;;;;;;;;;;;;;;5085576;28;19914;-84
2022/06/18 11:42:57;;;;;;;;;;;;;;;;;;5071237;28;19912;-85
2022/06/18 11:45:44;;;;;;;;;;;;;;;;;;5076378;28;19986;-80
2022/06/18 11:48:31;;;;;;;;;;;;;;;;;;5077903;28;19909;-82
2022/06/18 11:51:18;;;;;;;;;;;;;;;;;;5078240;28;20273;-81
2022/06/18 11:54:05;;;;;;;;;;;;;;;;;;5081164;28;19931;-82
2022/06/18 11:56:51;;;;;;;;;;;;;;;;;;5075881;28;19917;-82
2022/06/18 11:59:38;;;;;;;;;;;;;;;;;;5082459;28;19912;-82
2022/06/18 12:02:24;;;;;;;;;;;;;;;;;;5078135;28;19930;-88
2022/06/18 12:05:11;;;;;;;;;;;;;;;;;;5082417;28;19916;-87
2022/06/18 12:07:57;;;;;;;;;;;;;;;;;;5077365;28;19915;-88
2022/06/18 12:10:44;;;;;;;;;;;;;;;;;;5078868;28;19929;-90
2022/06/18 12:13:32;;;;;;;;;;;;;;;;;;5084772;28;19908;-88
2022/06/18 12:16:18;;;;;;;;;;;;;;;;;;5085698;28;19912;-88
2022/06/18 12:19:05;;;;;;;;;;;;;;;;;;5074286;28;19912;-87
2022/06/18 12:21:51;;;;;;;;;;;;;;;;;;5076741;28;20261;-88
2022/06/18 12:24:38;;;;;;;;;;;;;;;;;;5073314;28;19916;-88
2022/06/18 12:27:24;;;;;;;;;;;;;;;;;;5088360;28;20268;-89
2022/06/18 12:30:11;;;;;;;;;;;;;;;;;;5077436;28;19917;-88
2022/06/18 12:32:57;;;;;;;;;;;;;;;;;;5085007;28;20286;-88
2022/06/18 12:35:44;;;;;;;;;;;;;;;;;;5087518;28;20371;-88
2022/06/18 12:38:30;;;;;;;;;;;;;;;;;;5086389;28;19908;-89
2022/06/18 12:41:17;;;;;;;;;;;;;;;;;;5085113;28;19986;-88
2022/06/18 12:44:03;;;;;;;;;;;;;;;;;;5077084;28;19915;-89
2022/06/18 12:46:50;;;;;;;;;;;;;;;;;;5085116;28;19912;-88
2022/06/18 12:49:36;;;;;;;;;;;;;;;;;;5088371;28;19920;-89
2022/06/18 12:52:23;;;;;;;;;;;;;;;;;;5071246;28;19931;-89
2022/06/18 12:55:09;;;;;;;;;;;;;;;;;;5087325;28;19920;-89
2022/06/18 12:57:56;;;;;;;;;;;;;;;;;;5079376;28;19908;-88
2022/06/18 13:00:42;;;;;;;;;;;;;;;;;;5086386;28;19918;-88
2022/06/18 13:03:29;;;;;;;;;;;;;;;;;;5093346;28;19908;-88
2022/06/18 13:06:15;;;;;;;;;;;;;;;;;;5095245;28;19980;-89
2022/06/18 13:09:02;;;;;;;;;;;;;;;;;;5078624;28;19969;-84
2022/06/18 13:11:48;;;;;;;;;;;;;;;;;;5078079;28;19913;-81
2022/06/18 13:14:35;;;;;;;;;;;;;;;;;;5074240;28;19922;-83
2022/06/18 13:17:21;;;;;;;;;;;;;;;;;;5078816;28;19912;-84
2022/06/18 13:20:08;;;;;;;;;;;;;;;;;;5079216;28;19916;-85
2022/06/18 13:22:54;;;;;;;;;;;;;;;;;;5081873;28;19908;-86
2022/06/18 13:28:46;;;;;;;;;;;;;;;;;;5074940;28;19981;-84
2022/06/18 13:31:32;;;;;;;;;;;;;;;;;;5090656;28;19916;-84
2022/06/18 13:34:19;;;;;;;;;;;;;;;;;;5090322;28;19912;-85
2022/06/18 13:37:05;;;;;;;;;;;;;;;;;;5081432;28;20240;-84
2022/06/18 13:39:52;;;;;;;;;;;;;;;;;;5086438;28;19918;-84
2022/06/18 13:42:38;;;;;;;;;;;;;;;;;;5084910;28;19942;-84
2022/06/18 13:45:25;;;;;;;;;;;;;;;;;;5092082;28;19908;-84
2022/06/18 13:48:11;;;;;;;;;;;;;;;;;;5076238;28;19909;-84
2022/06/18 13:50:58;;;;;;;;;;;;;;;;;;5088658;28;19922;-84
2022/06/18 13:53:44;;;;;;;;;;;;;;;;;;5085020;28;19934;-84
2022/06/18 13:56:31;;;;;;;;;;;;;;;;;;5077765;28;19908;-84
2022/06/18 13:59:20;;;;;;;;;;;;;;;;;;5072813;28;20232;-84
2022/06/18 14:02:06;;;;;;;;;;;;;;;;;;5088251;28;20250;-85
2022/06/18 14:04:53;;;;;;;;;;;;;;;;;;5089026;28;19912;-84
2022/06/18 14:07:39;;;;;;;;;;;;;;;;;;5087077;28;19908;-84
2022/06/18 14:10:26;;;;;;;;;;;;;;;;;;5085846;28;20394;-84
2022/06/18 14:13:12;;;;;;;;;;;;;;;;;;5081992;28;19919;-83
2022/06/18 14:15:59;;;;;;;;;;;;;;;;;;5082933;28;19908;-84
2022/06/18 14:18:45;;;;;;;;;;;;;;;;;;5080705;28;19908;-84
2022/06/18 14:21:34;;;;;;;;;;;;;;;;;;5089424;28;19919;-84
2022/06/18 14:24:20;;;;;;;;;;;;;;;;;;5086063;28;19912;-84
2022/06/18 14:27:07;;;;;;;;;;;;;;;;;;5083693;28;20364;-86
2022/06/18 14:29:54;;;;;;;;;;;;;;;;;;5084189;28;20265;-84
2022/06/18 14:32:40;;;;;;;;;;;;;;;;;;5085786;28;19923;-84
2022/06/18 14:35:27;;;;;;;;;;;;;;;;;;5080959;28;19920;-84
2022/06/18 14:38:13;;;;;;;;;;;;;;;;;;5086375;28;19915;-84
2022/06/18 14:44:19;;;;;;;;;;;;;;;;;;5055481;28;19927;-85
2022/06/18 14:47:05;;;;;;;;;;;;;;;;;;5067005;28;19929;-84
2022/06/18 14:49:51;;;;;;;;;;;;;;;;;;5088972;28;19926;-84
2022/06/18 14:52:38;;;;;;;;;;;;;;;;;;5087435;28;19912;-84
2022/06/18 14:55:25;;;;;;;;;;;;;;;;;;5087409;28;19920;-83
2022/06/18 14:58:13;;;;;;;;;;;;;;;;;;5088850;28;19919;-83
2022/06/18 15:01:00;;;;;;;;;;;;;;;;;;5084739;28;19912;-83
2022/06/18 15:03:46;;;;;;;;;;;;;;;;;;5086658;28;20406;-84
2022/06/18 15:06:33;;;;;;;;;;;;;;;;;;5084396;28;19908;-83
2022/06/18 15:09:19;;;;;;;;;;;;;;;;;;5076222;28;19912;-83
2022/06/18 15:12:06;;;;;;;;;;;;;;;;;;5086247;28;19916;-83
2022/06/18 15:14:56;;;;;;;;;;;;;;;;;;5083267;28;19912;-84
2022/06/18 15:21:20;;;;;;;;;;;;;;;;;;5006260;28;20561;-84
2022/06/18 15:24:26;;;;;;;;;;;;;;;;;;5084526;28;19912;-84
2022/06/18 15:27:12;;;;;;;;;;;;;;;;;;5083862;28;19919;-84
2022/06/18 15:30:02;;;;;;;;;;;;;;;;;;5082354;28;19920;-83
2022/06/18 15:32:48;;;;;;;;;;;;;;;;;;5080509;28;20009;-83
2022/06/18 15:35:35;;;;;;;;;;;;;;;;;;5087028;28;19919;-83
2022/06/18 15:38:21;;;;;;;;;;;;;;;;;;5076802;28;19931;-83
2022/06/18 15:41:07;;;;;;;;;;;;;;;;;;5087781;28;19920;-85
2022/06/18 15:43:54;;;;;;;;;;;;;;;;;;5075417;28;19915;-85
2022/06/18 15:46:40;;;;;;;;;;;;;;;;;;5085150;28;20433;-83
2022/06/18 15:49:27;;;;;;;;;;;;;;;;;;5077282;28;19917;-83
2022/06/18 15:52:13;;;;;;;;;;;;;;;;;;5075906;28;19919;-85
2022/06/18 15:55:00;;;;;;;;;;;;;;;;;;5088708;28;19924;-84
2022/06/18 15:57:46;;;;;;;;;;;;;;;;;;5074357;28;19912;-84
2022/06/18 16:00:33;;;;;;;;;;;;;;;;;;5086429;28;19916;-85
2022/06/18 16:03:19;;;;;;;;;;;;;;;;;;5087333;28;19912;-84
2022/06/18 16:06:06;;;;;;;;;;;;;;;;;;5087904;28;19915;-85
2022/06/18 16:08:52;;;;;;;;;;;;;;;;;;5087059;28;19912;-84
2022/06/18 16:11:39;;;;;;;;;;;;;;;;;;5074034;28;19922;-83
2022/06/18 16:14:25;;;;;;;;;;;;;;;;;;5071730;28;19930;-83
2022/06/18 16:17:12;;;;;;;;;;;;;;;;;;5087891;28;19912;-84
2022/06/18 16:19:59;;;;;;;;;;;;;;;;;;5070088;28;20290;-84
2022/06/18 16:22:45;;;;;;;;;;;;;;;;;;5077398;28;19908;-83
2022/06/18 16:25:32;;;;;;;;;;;;;;;;;;5076037;28;20311;-83
2022/06/18 16:28:19;;;;;;;;;;;;;;;;;;5076493;28;19916;-84
2022/06/18 16:31:05;;;;;;;;;;;;;;;;;;5083072;28;19947;-83
2022/06/18 16:33:51;;;;;;;;;;;;;;;;;;5086357;28;19918;-84
2022/06/18 16:36:38;;;;;;;;;;;;;;;;;;5087955;28;19916;-84
2022/06/18 16:39:24;;;;;;;;;;;;;;;;;;5088390;28;19908;-84
2022/06/18 16:42:11;;;;;;;;;;;;;;;;;;5070446;28;19909;-84
2022/06/18 16:44:57;;;;;;;;;;;;;;;;;;5074137;28;19912;-84
2022/06/18 16:47:44;;;;;;;;;;;;;;;;;;5070551;28;19916;-84
2022/06/18 16:50:30;;;;;;;;;;;;;;;;;;5073815;28;19970;-85
2022/06/18 16:53:17;;;;;;;;;;;;;;;;;;5073896;28;19947;-84
2022/06/18 16:56:03;;;;;;;;;;;;;;;;;;5077402;28;19908;-84
2022/06/18 16:58:50;;;;;;;;;;;;;;;;;;5079706;28;19909;-84
2022/06/18 17:01:36;;;;;;;;;;;;;;;;;;5092352;28;19915;-84
2022/06/18 17:04:23;;;;;;;;;;;;;;;;;;5077507;28;19935;-83
2022/06/18 17:07:09;;;;;;;;;;;;;;;;;;5089973;28;19942;-86
2022/06/18 17:09:56;;;;;;;;;;;;;;;;;;5090862;28;19924;-84
2022/06/18 17:12:42;;;;;;;;;;;;;;;;;;5089401;28;20295;-84
2022/06/18 17:15:28;;;;;;;;;;;;;;;;;;5089050;28;19923;-85
2022/06/18 17:18:15;;;;;;;;;;;;;;;;;;5073988;28;19913;-85
2022/06/18 17:21:01;;;;;;;;;;;;;;;;;;5074514;28;20387;-85
2022/06/18 17:33:05;;;;;;;;;;;;;;;;;;5089098;28;19918;-85
2022/06/18 17:35:51;;;;;;;;;;;;;;;;;;5087538;28;19919;-85
2022/06/18 17:38:38;;;;;;;;;;;;;;;;;;5076586;28;20279;-85
2022/06/18 17:41:24;;;;;;;;;;;;;;;;;;5086379;28;19924;-85
2022/06/18 17:44:11;;;;;;;;;;;;;;;;;;5089675;28;19930;-85
2022/06/18 17:46:57;;;;;;;;;;;;;;;;;;5093516;28;20292;-85
2022/06/18 17:49:44;;;;;;;;;;;;;;;;;;5101409;28;19912;-85
2022/06/18 17:52:30;;;;;;;;;;;;;;;;;;5099500;28;19931;-85
2022/06/18 17:55:17;;;;;;;;;;;;;;;;;;5090710;28;19912;-85
2022/06/18 17:58:03;;;;;;;;;;;;;;;;;;5089206;28;19908;-85
2022/06/18 18:00:50;;;;;;;;;;;;;;;;;;5080808;28;19908;-84
2022/06/18 18:03:36;;;;;;;;;;;;;;;;;;5072306;28;19957;-84
2022/06/18 18:06:22;;;;;;;;;;;;;;;;;;5091408;28;20346;-83
2022/06/18 18:09:09;;;;;;;;;;;;;;;;;;5087553;28;19912;-84
2022/06/18 18:11:56;;;;;;;;;;;;;;;;;;5090546;28;19916;-83
2022/06/18 18:14:42;;;;;;;;;;;;;;;;;;5085959;28;20387;-84
2022/06/18 18:17:28;;;;;;;;;;;;;;;;;;5063981;28;19924;-84
2022/06/18 18:20:15;;;;;;;;;;;;;;;;;;5084286;28;19919;-84
2022/06/18 18:23:01;;;;;;;;;;;;;;;;;;5091418;28;19912;-84
2022/06/18 18:25:48;;;;;;;;;;;;;;;;;;5089546;28;19917;-83
2022/06/18 18:28:34;;;;;;;;;;;;;;;;;;5089470;28;20529;-84
2022/06/18 18:31:21;;;;;;;;;;;;;;;;;;5089573;28;19939;-84
2022/06/18 18:34:08;;;;;;;;;;;;;;;;;;5078799;28;19912;-85
2022/06/18 18:36:54;;;;;;;;;;;;;;;;;;5090265;28;19908;-83
2022/06/18 18:39:40;;;;;;;;;;;;;;;;;;5087497;28;19908;-84
2022/06/18 18:42:27;;;;;;;;;;;;;;;;;;5079263;28;20287;-85
2022/06/18 18:45:14;;;;;;;;;;;;;;;;;;5086135;28;19920;-85
2022/06/18 18:48:01;;;;;;;;;;;;;;;;;;5076623;28;20295;-85
2022/06/18 18:50:47;;;;;;;;;;;;;;;;;;5085371;28;19921;-85
2022/06/18 18:53:34;;;;;;;;;;;;;;;;;;5084073;28;20285;-84
2022/06/18 18:56:20;;;;;;;;;;;;;;;;;;5085337;28;20352;-85
2022/06/18 18:59:07;;;;;;;;;;;;;;;;;;5077949;28;19912;-85
2022/06/18 19:01:53;;;;;;;;;;;;;;;;;;5075254;28;20360;-85
2022/06/18 19:04:40;;;;;;;;;;;;;;;;;;5080040;28;19908;-84
2022/06/18 19:07:27;;;;;;;;;;;;;;;;;;5088910;28;20263;-82
2022/06/18 19:10:13;;;;;;;;;;;;;;;;;;5082664;28;19923;-83
2022/06/18 19:13:04;;;;;;;;;;;;;;;;;;5066446;28;20364;-83
2022/06/18 19:15:52;;;;;;;;;;;;;;;;;;5077109;28;19935;-84
2022/06/18 19:18:38;;;;;;;;;;;;;;;;;;5082562;28;19908;-84
2022/06/18 19:21:25;;;;;;;;;;;;;;;;;;5088836;28;20307;-84
2022/06/18 19:24:11;;;;;;;;;;;;;;;;;;5086885;28;19908;-84
2022/06/18 19:26:58;;;;;;;;;;;;;;;;;;5084773;28;20280;-84
2022/06/18 19:29:45;;;;;;;;;;;;;;;;;;5071289;28;20308;-84